createdAt,value
2019-02-27T00:02:07.901Z,6.00
2019-02-27T00:04:39.702Z,5.90
2019-02-27T00:07:09.361Z,5.90
2019-02-27T00:09:38.865Z,5.90
2019-02-27T00:12:08.221Z,5.90
2019-02-27T00:14:37.646Z,5.90
2019-02-27T00:17:08.293Z,5.80
2019-02-27T00:19:37.796Z,5.80
2019-02-27T00:22:07.306Z,5.70
2019-02-27T00:24:36.713Z,5.60
2019-02-27T00:27:06.161Z,5.60
2019-02-27T00:29:35.673Z,5.50
2019-02-27T00:32:05.515Z,5.60
2019-02-27T00:34:34.965Z,5.50
2019-02-27T00:37:04.324Z,5.50
2019-02-27T00:39:33.827Z,5.50
2019-02-27T00:42:03.210Z,5.50
2019-02-27T00:44:34.739Z,5.40
2019-02-27T00:47:04.288Z,5.40
2019-02-27T00:49:34.805Z,5.30
2019-02-27T00:52:04.309Z,5.20
2019-02-27T00:54:33.748Z,5.40
2019-02-27T00:57:03.227Z,5.40
2019-02-27T00:59:33.219Z,5.30
2019-02-27T01:02:03.124Z,5.30
2019-02-27T01:04:34.963Z,5.30
2019-02-27T01:07:03.621Z,5.20
2019-02-27T01:09:33.039Z,5.30
2019-02-27T01:12:02.538Z,5.30
2019-02-27T01:14:36.943Z,5.20
2019-02-27T01:17:04.177Z,5.20
2019-02-27T01:19:38.338Z,5.20
2019-02-27T01:22:05.373Z,5.20
2019-02-27T01:24:34.724Z,5.20
2019-02-27T01:27:04.625Z,5.20
2019-02-27T01:29:34.720Z,5.00
2019-02-27T01:32:04.215Z,5.10
2019-02-27T01:34:33.635Z,5.30
2019-02-27T01:37:03.013Z,5.50
2019-02-27T01:39:32.359Z,5.60
2019-02-27T01:42:01.716Z,5.60
2019-02-27T01:44:31.221Z,5.60
2019-02-27T01:47:02.284Z,5.60
2019-02-27T01:49:31.625Z,5.40
2019-02-27T01:52:02.068Z,5.30
2019-02-27T01:54:31.620Z,5.30
2019-02-27T01:57:02.931Z,5.20
2019-02-27T01:59:32.045Z,5.10
2019-02-27T02:02:03.507Z,5.00
2019-02-27T02:04:33.613Z,5.10
2019-02-27T02:07:04.076Z,5.00
2019-02-27T02:09:36.376Z,5.00
2019-02-27T02:12:18.145Z,5.00
2019-02-27T02:14:54.458Z,5.00
2019-02-27T02:17:45.126Z,5.00
2019-02-27T02:20:36.866Z,4.90
2019-02-27T02:23:15.161Z,4.90
2019-02-27T02:26:01.878Z,4.70
2019-02-27T02:28:48.229Z,4.90
2019-02-27T02:31:33.128Z,4.80
2019-02-27T02:34:27.677Z,4.80
2019-02-27T02:39:54.697Z,4.80
2019-02-27T02:42:46.241Z,4.80
2019-02-27T02:45:33.814Z,4.80
2019-02-27T02:48:21.431Z,4.70
2019-02-27T02:51:21.398Z,4.70
2019-02-27T02:54:22.543Z,4.70
2019-02-27T02:57:04.945Z,4.60
2019-02-27T02:59:49.392Z,4.60
2019-02-27T03:02:36.768Z,4.60
2019-02-27T03:08:05.432Z,4.50
2019-02-27T03:10:42.575Z,4.30
2019-02-27T03:13:14.919Z,4.30
2019-02-27T03:15:47.372Z,4.40
2019-02-27T03:18:39.278Z,4.30
2019-02-27T03:21:33.028Z,4.30
2019-02-27T03:24:11.495Z,4.30
2019-02-27T03:26:43.934Z,4.40
2019-02-27T03:29:40.222Z,4.30
2019-02-27T03:32:21.520Z,4.30
2019-02-27T03:35:11.872Z,4.10
2019-02-27T03:37:49.907Z,4.10
2019-02-27T03:43:45.665Z,4.30
2019-02-27T03:46:42.627Z,4.20
2019-02-27T03:49:30.056Z,4.20
2019-02-27T03:52:20.763Z,4.10
2019-02-27T03:55:04.761Z,4.10
2019-02-27T04:00:23.895Z,4.20
2019-02-27T04:02:56.328Z,4.10
2019-02-27T04:05:57.768Z,4.10
2019-02-27T04:08:35.957Z,4.10
2019-02-27T04:13:54.439Z,4.10
2019-02-27T04:16:28.814Z,4.10
2019-02-27T04:18:55.035Z,4.00
2019-02-27T04:21:25.351Z,4.00
2019-02-27T04:23:57.120Z,4.00
2019-02-27T04:26:28.046Z,4.00
2019-02-27T04:28:57.423Z,4.00
2019-02-27T04:31:29.455Z,4.00
2019-02-27T04:34:00.350Z,4.00
2019-02-27T04:36:28.881Z,4.10
2019-02-27T04:39:00.025Z,4.20
2019-02-27T04:41:29.297Z,4.20
2019-02-27T04:43:58.649Z,4.50
2019-02-27T04:46:28.083Z,4.60
2019-02-27T04:48:57.447Z,4.60
2019-02-27T04:51:26.796Z,4.60
2019-02-27T04:53:56.148Z,4.70
2019-02-27T04:56:25.519Z,4.70
2019-02-27T04:58:54.956Z,4.70
2019-02-27T05:01:24.404Z,4.70
2019-02-27T05:03:53.860Z,4.70
2019-02-27T05:06:23.212Z,4.60
2019-02-27T05:08:52.588Z,4.60
2019-02-27T05:11:21.931Z,4.60
2019-02-27T05:13:54.040Z,4.50
2019-02-27T05:16:22.375Z,4.60
2019-02-27T05:18:51.721Z,4.60
2019-02-27T05:21:21.068Z,4.50
2019-02-27T05:23:50.427Z,4.40
2019-02-27T05:26:19.810Z,4.30
2019-02-27T05:28:49.180Z,4.20
2019-02-27T05:31:19.159Z,4.20
2019-02-27T05:33:48.588Z,4.10
2019-02-27T05:36:17.945Z,4.10
2019-02-27T05:38:47.395Z,4.00
2019-02-27T05:41:16.742Z,4.00
2019-02-27T05:43:48.460Z,3.90
2019-02-27T05:46:17.580Z,3.90
2019-02-27T05:48:46.985Z,3.90
2019-02-27T05:51:16.403Z,3.80
2019-02-27T05:53:45.786Z,3.70
2019-02-27T05:56:16.825Z,3.70
2019-02-27T05:58:46.271Z,3.70
2019-02-27T06:01:15.626Z,3.70
2019-02-27T06:03:45.008Z,3.70
2019-02-27T06:06:15.459Z,3.70
2019-02-27T06:08:44.852Z,3.70
2019-02-27T06:11:14.204Z,3.70
2019-02-27T06:13:45.015Z,3.70
2019-02-27T06:16:16.204Z,3.70
2019-02-27T06:18:45.580Z,3.60
2019-02-27T06:21:16.379Z,3.60
2019-02-27T06:23:47.114Z,3.60
2019-02-27T06:26:18.957Z,3.60
2019-02-27T06:28:48.370Z,3.60
2019-02-27T06:31:17.724Z,3.60
2019-02-27T06:33:47.082Z,3.50
2019-02-27T06:36:16.522Z,3.60
2019-02-27T06:38:45.870Z,3.50
2019-02-27T06:41:18.140Z,3.60
2019-02-27T06:43:47.502Z,3.60
2019-02-27T06:46:19.898Z,3.50
2019-02-27T06:48:48.566Z,3.50
2019-02-27T06:51:17.995Z,3.50
2019-02-27T06:53:47.368Z,3.60
2019-02-27T06:56:16.764Z,3.60
2019-02-27T06:58:47.605Z,3.60
2019-02-27T07:01:17.231Z,3.70
2019-02-27T07:03:46.593Z,3.60
2019-02-27T07:06:16.410Z,3.70
2019-02-27T07:08:46.173Z,3.70
2019-02-27T07:11:17.192Z,3.70
2019-02-27T07:13:46.641Z,3.80
2019-02-27T07:16:20.472Z,3.80
2019-02-27T07:18:49.357Z,3.90
2019-02-27T07:21:18.702Z,4.00
2019-02-27T07:23:48.094Z,4.10
2019-02-27T07:26:21.102Z,4.10
2019-02-27T07:28:50.448Z,4.20
2019-02-27T07:31:19.878Z,4.20
2019-02-27T07:33:51.621Z,4.30
2019-02-27T07:36:21.113Z,4.30
2019-02-27T07:38:50.541Z,4.40
2019-02-27T07:41:22.867Z,4.60
2019-02-27T07:43:52.251Z,4.80
2019-02-27T07:46:22.404Z,4.80
2019-02-27T07:48:56.390Z,4.90
2019-02-27T07:51:23.929Z,5.10
2019-02-27T07:53:54.512Z,5.20
2019-02-27T07:56:24.098Z,5.50
2019-02-27T07:58:53.485Z,5.80
2019-02-27T08:01:23.661Z,6.40
2019-02-27T08:03:53.586Z,7.30
2019-02-27T08:06:23.701Z,8.30
2019-02-27T08:08:57.003Z,8.00
2019-02-27T08:11:26.372Z,7.60
2019-02-27T08:13:55.503Z,7.50
2019-02-27T08:16:24.877Z,7.60
2019-02-27T08:18:54.256Z,7.70
2019-02-27T08:21:23.634Z,7.80
2019-02-27T08:23:53.068Z,7.90
2019-02-27T08:26:22.490Z,8.10
2019-02-27T08:28:51.855Z,8.20
2019-02-27T08:31:21.222Z,8.40
2019-02-27T08:33:52.258Z,8.50
2019-02-27T08:36:21.760Z,8.70
2019-02-27T08:38:51.091Z,8.90
2019-02-27T08:41:20.534Z,9.00
2019-02-27T08:43:49.896Z,9.30
2019-02-27T08:46:19.258Z,9.30
2019-02-27T08:48:50.183Z,9.40
2019-02-27T08:51:19.699Z,9.70
2019-02-27T08:53:49.052Z,9.80
2019-02-27T08:56:18.412Z,9.80
2019-02-27T08:58:47.793Z,10.10
2019-02-27T09:01:19.041Z,10.40
2019-02-27T09:03:48.223Z,10.60
2019-02-27T09:06:18.811Z,10.70
2019-02-27T09:08:48.173Z,10.90
2019-02-27T09:11:17.545Z,11.10
2019-02-27T09:13:46.896Z,11.30
2019-02-27T09:16:16.264Z,11.50
2019-02-27T09:18:45.638Z,11.70
2019-02-27T09:21:15.000Z,12.10
2019-02-27T09:23:44.426Z,12.50
2019-02-27T09:26:13.868Z,12.50
2019-02-27T09:28:44.546Z,12.90
2019-02-27T09:31:15.368Z,13.10
2019-02-27T09:33:45.804Z,13.30
2019-02-27T09:36:15.227Z,13.40
2019-02-27T09:38:45.228Z,13.50
2019-02-27T09:41:14.792Z,13.60
2019-02-27T09:43:44.141Z,13.80
2019-02-27T09:46:19.262Z,14.10
2019-02-27T09:48:45.881Z,14.10
2019-02-27T09:51:15.278Z,14.30
2019-02-27T09:53:44.676Z,14.50
2019-02-27T09:56:14.656Z,14.70
2019-02-27T09:58:45.525Z,14.80
2019-02-27T10:01:17.196Z,14.80
2019-02-27T10:03:46.656Z,15.00
2019-02-27T10:06:16.079Z,15.00
2019-02-27T10:08:45.536Z,15.10
2019-02-27T10:11:18.799Z,15.30
2019-02-27T10:13:46.119Z,15.20
2019-02-27T10:16:15.535Z,15.20
2019-02-27T10:18:44.896Z,15.30
2019-02-27T10:21:14.276Z,15.30
2019-02-27T10:23:43.719Z,15.40
2019-02-27T10:26:13.147Z,15.50
2019-02-27T10:28:44.033Z,15.60
2019-02-27T10:31:15.898Z,15.70
2019-02-27T10:33:45.266Z,15.70
2019-02-27T10:36:16.195Z,15.80
2019-02-27T10:38:46.840Z,16.00
2019-02-27T10:41:16.265Z,15.90
2019-02-27T10:43:45.627Z,16.10
2019-02-27T10:46:15.077Z,16.00
2019-02-27T10:48:46.920Z,16.00
2019-02-27T10:51:15.504Z,16.20
2019-02-27T10:53:44.858Z,16.30
2019-02-27T10:56:14.232Z,16.40
2019-02-27T10:58:45.023Z,16.50
2019-02-27T11:01:14.729Z,16.50
2019-02-27T11:03:44.133Z,16.60
2019-02-27T11:06:13.561Z,16.70
2019-02-27T11:08:43.239Z,16.70
2019-02-27T11:11:13.191Z,16.80
2019-02-27T11:13:43.887Z,16.80
2019-02-27T11:16:15.411Z,17.20
2019-02-27T11:18:44.442Z,17.50
2019-02-27T11:21:15.027Z,17.40
2019-02-27T11:23:44.372Z,17.20
2019-02-27T11:26:13.730Z,17.10
2019-02-27T11:28:47.566Z,17.20
2019-02-27T11:31:15.571Z,17.30
2019-02-27T11:33:45.079Z,17.40
2019-02-27T11:36:14.583Z,17.50
2019-02-27T11:38:43.966Z,17.60
2019-02-27T11:41:15.362Z,17.50
2019-02-27T11:43:44.459Z,17.60
2019-02-27T11:46:13.819Z,17.60
2019-02-27T11:48:47.501Z,17.70
2019-02-27T11:51:17.522Z,17.60
2019-02-27T11:53:48.161Z,17.60
2019-02-27T11:56:20.246Z,17.90
2019-02-27T11:58:50.095Z,18.00
2019-02-27T12:01:22.126Z,18.00
2019-02-27T12:03:52.066Z,18.20
2019-02-27T12:06:21.488Z,18.30
2019-02-27T12:08:50.946Z,18.00
2019-02-27T12:11:20.367Z,18.10
2019-02-27T12:13:50.105Z,18.10
2019-02-27T12:16:19.494Z,18.10
2019-02-27T12:18:49.008Z,18.20
2019-02-27T12:21:19.152Z,18.20
2019-02-27T12:23:48.638Z,18.20
2019-02-27T12:26:18.079Z,18.20
2019-02-27T12:28:52.644Z,18.30
2019-02-27T12:31:21.740Z,18.40
2019-02-27T12:33:51.120Z,18.30
2019-02-27T12:36:23.317Z,18.60
2019-02-27T12:38:52.733Z,18.40
2019-02-27T12:41:22.227Z,18.60
2019-02-27T12:43:52.753Z,18.50
2019-02-27T12:46:22.864Z,18.50
2019-02-27T12:48:52.249Z,18.60
2019-02-27T12:51:21.609Z,18.80
2019-02-27T12:53:54.408Z,19.10
2019-02-27T12:56:22.097Z,19.30
2019-02-27T12:58:51.467Z,19.00
2019-02-27T13:01:20.933Z,18.90
2019-02-27T13:03:50.434Z,18.80
2019-02-27T13:06:19.842Z,18.90
2019-02-27T13:08:52.609Z,18.80
2019-02-27T13:11:20.345Z,18.80
2019-02-27T13:13:49.853Z,18.70
2019-02-27T13:16:19.264Z,18.90
2019-02-27T13:18:48.784Z,18.90
2019-02-27T13:21:20.696Z,19.00
2019-02-27T13:23:49.245Z,19.10
2019-02-27T13:26:18.618Z,19.20
2019-02-27T13:28:49.708Z,19.20
2019-02-27T13:31:19.254Z,19.20
2019-02-27T13:33:48.692Z,19.30
2019-02-27T13:36:18.182Z,19.10
2019-02-27T13:38:49.557Z,19.00
2019-02-27T13:41:18.740Z,19.20
2019-02-27T13:43:48.135Z,19.00
2019-02-27T13:46:17.496Z,19.10
2019-02-27T13:48:46.944Z,19.10
2019-02-27T13:51:16.301Z,19.30
2019-02-27T13:53:45.659Z,19.30
2019-02-27T13:56:16.174Z,19.20
2019-02-27T13:58:45.814Z,19.30
2019-02-27T14:01:15.167Z,19.30
2019-02-27T14:03:45.676Z,19.40
2019-02-27T14:06:15.680Z,19.30
2019-02-27T14:08:45.123Z,19.40
2019-02-27T14:11:14.488Z,19.40
2019-02-27T14:13:44.959Z,19.10
2019-02-27T14:16:14.407Z,19.10
2019-02-27T14:18:44.020Z,19.20
2019-02-27T14:21:14.966Z,19.30
2019-02-27T14:23:46.911Z,19.40
2019-02-27T14:26:15.704Z,19.30
2019-02-27T14:28:45.201Z,19.30
2019-02-27T14:31:14.563Z,19.20
2019-02-27T14:33:44.087Z,19.20
2019-02-27T14:36:13.512Z,19.30
2019-02-27T14:38:42.867Z,19.30
2019-02-27T14:41:14.354Z,19.40
2019-02-27T14:43:43.315Z,19.40
2019-02-27T14:46:12.865Z,19.20
2019-02-27T14:48:42.341Z,19.20
2019-02-27T14:51:11.838Z,19.30
2019-02-27T14:53:41.190Z,19.40
2019-02-27T14:56:10.637Z,19.50
2019-02-27T14:58:40.066Z,19.50
2019-02-27T15:01:11.833Z,19.50
2019-02-27T15:03:42.330Z,19.40
2019-02-27T15:06:11.787Z,19.40
2019-02-27T15:08:41.246Z,19.40
2019-02-27T15:11:13.999Z,19.20
2019-02-27T15:13:41.696Z,19.00
2019-02-27T15:16:11.156Z,18.90
2019-02-27T15:18:40.690Z,18.80
2019-02-27T15:21:13.034Z,18.70
2019-02-27T15:23:41.296Z,18.60
2019-02-27T15:26:13.894Z,18.50
2019-02-27T15:28:41.928Z,18.40
2019-02-27T15:31:15.167Z,18.20
2019-02-27T15:33:44.610Z,18.20
2019-02-27T15:36:14.066Z,18.10
2019-02-27T15:38:46.162Z,17.90
2019-02-27T15:41:16.600Z,17.70
2019-02-27T15:43:54.655Z,17.70
2019-02-27T15:46:21.708Z,17.60
2019-02-27T15:48:48.472Z,17.40
2019-02-27T15:51:18.347Z,17.30
2019-02-27T15:53:49.984Z,17.20
2019-02-27T15:56:20.012Z,17.10
2019-02-27T15:58:49.493Z,17.00
2019-02-27T16:01:19.046Z,16.80
2019-02-27T16:03:48.469Z,16.70
2019-02-27T16:06:17.855Z,16.60
2019-02-27T16:08:47.231Z,16.50
2019-02-27T16:11:17.334Z,16.50
2019-02-27T16:13:46.954Z,16.50
2019-02-27T16:16:16.384Z,16.30
2019-02-27T16:18:45.749Z,16.10
2019-02-27T16:21:15.128Z,16.00
2019-02-27T16:23:44.812Z,16.00
2019-02-27T16:26:14.180Z,16.00
2019-02-27T16:28:46.083Z,15.90
2019-02-27T16:31:14.639Z,15.90
2019-02-27T16:33:44.084Z,15.80
2019-02-27T16:36:15.692Z,15.70
2019-02-27T16:38:44.529Z,15.60
2019-02-27T16:41:13.888Z,15.60
2019-02-27T16:43:47.733Z,15.50
2019-02-27T16:46:14.377Z,15.40
2019-02-27T16:48:43.737Z,15.40
2019-02-27T16:51:13.125Z,15.30
2019-02-27T16:53:42.481Z,15.10
2019-02-27T16:56:12.878Z,15.10
2019-02-27T16:58:42.399Z,15.00
2019-02-27T17:01:11.845Z,14.90
2019-02-27T17:03:41.205Z,14.90
2019-02-27T17:06:10.561Z,14.80
2019-02-27T17:08:42.938Z,14.70
2019-02-27T17:11:12.368Z,14.60
2019-02-27T17:13:41.734Z,14.60
2019-02-27T17:16:11.533Z,14.50
2019-02-27T17:18:42.038Z,14.30
2019-02-27T17:21:11.970Z,14.20
2019-02-27T17:23:45.382Z,14.10
2019-02-27T17:26:12.593Z,14.00
2019-02-27T17:28:42.029Z,13.90
2019-02-27T17:31:12.196Z,13.80
2019-02-27T17:33:42.287Z,13.70
2019-02-27T17:36:11.685Z,13.50
2019-02-27T17:38:41.138Z,13.50
2019-02-27T17:41:10.643Z,13.40
2019-02-27T17:43:40.774Z,13.30
2019-02-27T17:46:10.163Z,13.20
2019-02-27T17:48:39.797Z,13.00
2019-02-27T17:51:09.338Z,13.00
2019-02-27T17:53:38.695Z,12.90
2019-02-27T17:56:08.065Z,12.80
2019-02-27T17:58:38.028Z,12.70
2019-02-27T18:01:09.187Z,12.50
2019-02-27T18:03:41.507Z,12.40
2019-02-27T18:06:09.675Z,12.40
2019-02-27T18:08:39.135Z,12.20
2019-02-27T18:11:08.664Z,12.10
2019-02-27T18:13:38.022Z,12.10
2019-02-27T18:16:07.417Z,12.00
2019-02-27T18:18:36.876Z,12.00
2019-02-27T18:21:06.309Z,11.90
2019-02-27T18:23:35.765Z,11.90
2019-02-27T18:26:05.492Z,11.90
2019-02-27T18:28:35.925Z,11.90
2019-02-27T18:31:05.731Z,11.90
2019-02-27T18:33:35.226Z,11.90
2019-02-27T18:36:05.881Z,12.00
2019-02-27T18:38:35.575Z,12.00
2019-02-27T18:41:05.633Z,11.90
2019-02-27T18:43:35.111Z,11.90
2019-02-27T18:46:04.519Z,11.80
2019-02-27T18:48:34.750Z,11.80
2019-02-27T18:51:04.563Z,11.70
2019-02-27T18:53:34.146Z,11.50
2019-02-27T18:56:05.177Z,11.30
2019-02-27T18:58:34.605Z,11.20
2019-02-27T19:01:09.518Z,11.20
2019-02-27T19:03:37.107Z,11.00
2019-02-27T19:06:06.701Z,10.90
2019-02-27T19:08:36.136Z,10.90
2019-02-27T19:11:06.282Z,10.80
2019-02-27T19:13:36.822Z,10.70
2019-02-27T19:16:06.560Z,10.60
2019-02-27T19:18:38.498Z,10.60
2019-02-27T19:21:07.587Z,10.50
2019-02-27T19:23:37.147Z,10.40
2019-02-27T19:26:09.360Z,10.40
2019-02-27T19:28:38.717Z,10.30
2019-02-27T19:31:08.278Z,10.40
2019-02-27T19:33:37.788Z,10.40
2019-02-27T19:36:07.157Z,10.30
2019-02-27T19:38:36.559Z,10.30
2019-02-27T19:41:06.058Z,10.30
2019-02-27T19:43:35.617Z,10.20
2019-02-27T19:46:10.010Z,10.20
2019-02-27T19:48:40.010Z,10.30
2019-02-27T19:51:09.377Z,10.30
2019-02-27T19:53:39.614Z,10.20
2019-02-27T19:56:09.561Z,10.40
2019-02-27T19:58:39.088Z,10.50
2019-02-27T20:01:10.227Z,10.50
2019-02-27T20:03:39.681Z,10.40
2019-02-27T20:06:09.064Z,10.40
2019-02-27T20:08:44.347Z,10.50
2019-02-27T20:11:10.014Z,10.50
2019-02-27T20:13:39.515Z,10.50
2019-02-27T20:16:09.083Z,10.30
2019-02-27T20:18:40.582Z,10.30
2019-02-27T20:21:12.097Z,10.20
2019-02-27T20:23:41.564Z,10.10
2019-02-27T20:26:19.996Z,10.00
2019-02-27T20:28:46.982Z,10.00
2019-02-27T20:31:19.727Z,9.90
2019-02-27T20:33:49.309Z,9.80
2019-02-27T20:36:18.788Z,9.70
2019-02-27T20:38:50.735Z,9.70
2019-02-27T20:41:20.348Z,9.60
2019-02-27T20:43:49.975Z,9.60
2019-02-27T20:46:19.367Z,9.50
2019-02-27T20:48:48.727Z,9.40
2019-02-27T20:51:18.196Z,9.40
2019-02-27T20:53:47.697Z,9.40
2019-02-27T20:56:17.154Z,9.20
2019-02-27T20:58:51.113Z,9.10
2019-02-27T21:01:17.770Z,9.00
2019-02-27T21:03:47.305Z,9.00
2019-02-27T21:06:16.707Z,8.90
2019-02-27T21:08:46.075Z,8.80
2019-02-27T21:11:15.594Z,8.80
2019-02-27T21:13:49.372Z,8.70
2019-02-27T21:16:16.194Z,8.70
2019-02-27T21:18:45.707Z,8.70
2019-02-27T21:21:16.986Z,8.60
2019-02-27T21:23:46.373Z,8.50
2019-02-27T21:26:15.956Z,8.40
2019-02-27T21:28:45.608Z,8.40
2019-02-27T21:31:15.234Z,8.40
2019-02-27T21:33:45.728Z,8.30
2019-02-27T21:36:16.066Z,8.20
2019-02-27T21:38:50.310Z,8.20
2019-02-27T21:41:19.464Z,8.20
2019-02-27T21:43:49.069Z,8.20
2019-02-27T21:46:18.736Z,8.20
2019-02-27T21:48:51.283Z,8.20
2019-02-27T21:51:20.828Z,8.10
2019-02-27T21:53:51.589Z,8.10
2019-02-27T21:56:21.185Z,8.10
2019-02-27T21:58:50.811Z,8.20
2019-02-27T22:01:22.601Z,8.20
2019-02-27T22:03:52.273Z,8.20
2019-02-27T22:06:24.623Z,8.20
2019-02-27T22:08:54.290Z,8.20
2019-02-27T22:11:24.273Z,8.10
2019-02-27T22:13:55.247Z,8.00
2019-02-27T22:16:29.494Z,8.00
2019-02-27T22:18:56.330Z,7.90
2019-02-27T22:21:25.955Z,7.90
2019-02-27T22:23:57.266Z,7.80
2019-02-27T22:26:26.862Z,7.80
2019-02-27T22:28:56.509Z,7.80
2019-02-27T22:31:26.138Z,7.90
2019-02-27T22:33:56.201Z,7.90
2019-02-27T22:36:26.474Z,7.90
2019-02-27T22:38:59.884Z,7.80
2019-02-27T22:41:27.118Z,7.80
2019-02-27T22:43:56.608Z,7.70
2019-02-27T22:46:25.963Z,7.60
2019-02-27T22:48:55.331Z,7.60
2019-02-27T22:51:24.770Z,7.50
2019-02-27T22:53:54.139Z,7.50
2019-02-27T22:56:23.516Z,7.40
2019-02-27T22:58:52.880Z,7.40
2019-02-27T23:01:25.919Z,7.40
2019-02-27T23:03:57.913Z,7.30
2019-02-27T23:06:28.078Z,7.30
2019-02-27T23:08:57.448Z,7.30
2019-02-27T23:11:26.882Z,7.20
2019-02-27T23:13:56.249Z,7.20
2019-02-27T23:16:25.681Z,7.20
2019-02-27T23:18:55.122Z,7.20
2019-02-27T23:21:30.496Z,7.20
2019-02-27T23:23:59.973Z,7.20
2019-02-27T23:26:29.466Z,7.20
2019-02-27T23:28:58.816Z,7.20
2019-02-27T23:31:28.188Z,7.10
2019-02-27T23:33:57.636Z,7.10
2019-02-27T23:36:27.013Z,7.10
2019-02-27T23:38:56.416Z,7.10
2019-02-27T23:41:25.815Z,7.10
2019-02-27T23:43:55.292Z,7.10
2019-02-27T23:46:24.672Z,7.00
2019-02-27T23:48:54.033Z,7.10
2019-02-27T23:51:23.425Z,7.00
2019-02-27T23:53:52.935Z,7.00
2019-02-27T23:56:22.293Z,7.00
2019-02-27T23:58:54.809Z,7.00
